Time;durP1;ratioP1;P1;durP2;ratioP2;P2;SDS_P1;SDS_P2;PMS_P1;PMS_P2;Temp;Humidity;BMP_temperature;BMP_pressure;BME280_temperature;BME280_humidity;BME280_pressure;Samples;Min_cycle;Max_cycle;Signal;HPM_P1;HPM_P2
2022/12/30 00:00:23;;;;;;;2.73;0.77;;;;;;;;;;5060795;28;20273;-66
2022/12/30 00:02:50;;;;;;;6.67;1.40;;;;;;;;;;5054661;28;20207;-67
2022/12/30 00:05:18;;;;;;;2.10;1.00;;;;;;;;;;5056494;28;20207;-67
2022/12/30 00:07:46;;;;;;;3.63;0.97;;;;;;;;;;5049190;28;20261;-67
2022/12/30 00:10:13;;;;;;;1.87;0.77;;;;;;;;;;5053753;28;20234;-66
2022/12/30 00:34:48;;;;;;;4.17;0.30;;;;;;;;;;5055460;28;20679;-68
2022/12/30 00:37:15;;;;;;;0.20;0.20;;;;;;;;;;5058745;28;20716;-65
2022/12/30 00:39:44;;;;;;;0.40;0.40;;;;;;;;;;5058469;28;20235;-65
2022/12/30 00:44:55;;;;;;;1.87;0.43;;;;;;;;;;5056988;28;21111;-66
2022/12/30 00:47:22;;;;;;;1.20;0.50;;;;;;;;;;5058283;28;20264;-66
2022/12/30 00:58:05;;;;;;;2.50;0.60;;;;;;;;;;5050813;28;20295;-66
2022/12/30 01:00:32;;;;;;;3.57;0.53;;;;;;;;;;5058656;28;20223;-66
2022/12/30 01:02:59;;;;;;;4.07;0.30;;;;;;;;;;5055879;28;20357;-66
2022/12/30 01:05:26;;;;;;;0.27;0.23;;;;;;;;;;5057327;28;20204;-66
2022/12/30 01:07:53;;;;;;;3.60;0.60;;;;;;;;;;5055323;28;20215;-66
2022/12/30 01:10:21;;;;;;;1.90;0.30;;;;;;;;;;5060411;28;20724;-66
2022/12/30 01:12:48;;;;;;;0.67;0.67;;;;;;;;;;5056164;28;20644;-66
2022/12/30 01:15:15;;;;;;;0.63;0.30;;;;;;;;;;5056107;28;20218;-66
2022/12/30 01:17:42;;;;;;;0.20;0.20;;;;;;;;;;5058804;28;20207;-66
2022/12/30 01:20:10;;;;;;;1.10;0.53;;;;;;;;;;5056379;28;20244;-66
2022/12/30 01:22:37;;;;;;;6.80;0.60;;;;;;;;;;5056338;28;20261;-66
2022/12/30 01:25:04;;;;;;;4.23;0.30;;;;;;;;;;5047868;28;20231;-65
2022/12/30 01:27:33;;;;;;;0.67;0.37;;;;;;;;;;5047742;28;20208;-65
2022/12/30 01:30:00;;;;;;;1.90;0.40;;;;;;;;;;5050042;28;20712;-66
2022/12/30 01:32:29;;;;;;;0.73;0.20;;;;;;;;;;5056041;28;20211;-65
2022/12/30 01:34:57;;;;;;;5.53;0.60;;;;;;;;;;5054644;28;20303;-65
2022/12/30 01:37:24;;;;;;;1.20;0.20;;;;;;;;;;5054972;28;20207;-65
2022/12/30 01:39:51;;;;;;;0.63;0.50;;;;;;;;;;5055998;28;20259;-66
2022/12/30 01:42:19;;;;;;;2.07;0.47;;;;;;;;;;5055491;28;20212;-65
2022/12/30 01:44:56;;;;;;;0.20;0.20;;;;;;;;;;5056139;28;20286;-66
2022/12/30 01:47:24;;;;;;;4.27;0.70;;;;;;;;;;5056745;28;20261;-66
2022/12/30 01:49:52;;;;;;;7.07;1.17;;;;;;;;;;5059960;28;20237;-66
2022/12/30 01:52:22;;;;;;;0.83;0.50;;;;;;;;;;5056439;28;20215;-65
2022/12/30 01:54:49;;;;;;;1.07;0.83;;;;;;;;;;5053327;28;20207;-65
2022/12/30 01:57:17;;;;;;;2.23;0.60;;;;;;;;;;5057329;28;20535;-66
2022/12/30 01:59:45;;;;;;;2.53;0.83;;;;;;;;;;5053189;28;20667;-65
2022/12/30 02:02:13;;;;;;;0.83;0.50;;;;;;;;;;5060956;28;20599;-65
2022/12/30 02:04:41;;;;;;;0.27;0.27;;;;;;;;;;5062585;28;20265;-65
2022/12/30 02:07:09;;;;;;;4.10;1.50;;;;;;;;;;5052691;28;20655;-65
2022/12/30 02:09:36;;;;;;;1.10;0.60;;;;;;;;;;5061407;28;20280;-65
2022/12/30 02:12:04;;;;;;;2.57;0.67;;;;;;;;;;5068039;28;20703;-66
2022/12/30 02:14:34;;;;;;;2.47;0.87;;;;;;;;;;5067091;28;20210;-65
2022/12/30 02:17:03;;;;;;;2.53;1.40;;;;;;;;;;5063313;28;20207;-66
2022/12/30 02:19:46;;;;;;;2.43;0.93;;;;;;;;;;5056743;28;20223;-68
2022/12/30 02:22:17;;;;;;;3.90;1.00;;;;;;;;;;5063901;28;20203;-65
2022/12/30 02:24:54;;;;;;;2.40;0.90;;;;;;;;;;5048128;28;20208;-65
2022/12/30 02:27:27;;;;;;;2.73;0.73;;;;;;;;;;5046374;28;20763;-66
2022/12/30 02:30:19;;;;;;;4.73;0.90;;;;;;;;;;5051968;28;20217;-66
2022/12/30 02:32:52;;;;;;;5.70;1.00;;;;;;;;;;5032879;28;20357;-65
2022/12/30 02:35:21;;;;;;;0.67;0.50;;;;;;;;;;5051848;28;20649;-65
2022/12/30 02:37:53;;;;;;;0.70;0.70;;;;;;;;;;5047451;28;20207;-65
2022/12/30 02:40:24;;;;;;;3.13;1.20;;;;;;;;;;5047423;28;20246;-65
2022/12/30 02:45:42;;;;;;;1.27;0.70;;;;;;;;;;5055543;28;20218;-66
2022/12/30 02:48:13;;;;;;;3.30;0.80;;;;;;;;;;5053832;28;20207;-66
2022/12/30 02:53:30;;;;;;;3.10;0.50;;;;;;;;;;5048204;28;20271;-66
2022/12/30 02:55:57;;;;;;;2.80;0.90;;;;;;;;;;5051064;28;20596;-65
2022/12/30 02:58:25;;;;;;;1.23;0.53;;;;;;;;;;5062691;28;20596;-65
2022/12/30 03:04:00;;;;;;;0.60;0.60;;;;;;;;;;5063515;28;20272;-65
2022/12/30 03:06:35;;;;;;;4.27;0.60;;;;;;;;;;5054081;28;20203;-65
2022/12/30 03:09:05;;;;;;;0.87;0.50;;;;;;;;;;5059812;28;20239;-65
2022/12/30 03:11:36;;;;;;;0.80;0.63;;;;;;;;;;5054701;28;20601;-65
2022/12/30 03:14:06;;;;;;;1.13;0.40;;;;;;;;;;5050958;28;20283;-65
2022/12/30 03:16:34;;;;;;;5.33;0.33;;;;;;;;;;5061174;28;20269;-65
2022/12/30 03:19:04;;;;;;;1.03;0.77;;;;;;;;;;5063887;28;20299;-65
2022/12/30 03:21:33;;;;;;;2.70;1.07;;;;;;;;;;5060596;28;20235;-66
2022/12/30 03:27:05;;;;;;;8.40;0.60;;;;;;;;;;5062465;28;20287;-66
2022/12/30 03:29:34;;;;;;;5.10;0.50;;;;;;;;;;5062286;28;20448;-66
2022/12/30 03:32:01;;;;;;;3.63;0.90;;;;;;;;;;5061493;28;20215;-66
2022/12/30 03:34:30;;;;;;;9.27;1.00;;;;;;;;;;5061382;28;20218;-66
2022/12/30 03:36:59;;;;;;;2.07;0.67;;;;;;;;;;5068519;28;20270;-66
2022/12/30 03:39:29;;;;;;;4.27;1.10;;;;;;;;;;5050126;28;20828;-66
2022/12/30 03:41:56;;;;;;;2.03;0.50;;;;;;;;;;5063268;28;20223;-65
2022/12/30 03:44:24;;;;;;;0.67;0.67;;;;;;;;;;5051628;28;20204;-65
2022/12/30 03:46:51;;;;;;;0.70;0.33;;;;;;;;;;5057400;28;20256;-65
2022/12/30 03:49:19;;;;;;;3.33;0.53;;;;;;;;;;5055127;28;20211;-65
2022/12/30 03:51:47;;;;;;;3.87;0.77;;;;;;;;;;5060187;28;20225;-65
2022/12/30 03:54:14;;;;;;;1.87;0.70;;;;;;;;;;5067689;28;20207;-65
2022/12/30 03:56:41;;;;;;;0.40;0.40;;;;;;;;;;5068766;28;21104;-66
2022/12/30 03:59:08;;;;;;;2.17;0.77;;;;;;;;;;5068839;28;20210;-65
2022/12/30 04:01:35;;;;;;;7.97;0.80;;;;;;;;;;5051982;28;20232;-65
2022/12/30 04:04:03;;;;;;;0.73;0.60;;;;;;;;;;5062325;28;20253;-65
2022/12/30 04:06:30;;;;;;;3.20;0.80;;;;;;;;;;5050609;28;20210;-66
2022/12/30 04:08:58;;;;;;;0.90;0.60;;;;;;;;;;5062807;28;20328;-65
2022/12/30 04:11:25;;;;;;;1.30;0.47;;;;;;;;;;5067901;28;20261;-66
2022/12/30 04:13:52;;;;;;;3.33;0.60;;;;;;;;;;5065599;28;20257;-66
2022/12/30 04:16:19;;;;;;;12.57;1.30;;;;;;;;;;5066490;28;20203;-66
2022/12/30 04:18:46;;;;;;;5.00;0.70;;;;;;;;;;5064417;28;20252;-66
2022/12/30 04:21:13;;;;;;;1.70;0.77;;;;;;;;;;5064829;28;20227;-66
2022/12/30 04:23:40;;;;;;;2.50;0.80;;;;;;;;;;5065322;28;20203;-66
2022/12/30 04:26:09;;;;;;;2.00;1.20;;;;;;;;;;5050021;28;20818;-66
2022/12/30 04:28:36;;;;;;;2.00;1.10;;;;;;;;;;5050368;28;20207;-66
2022/12/30 04:31:03;;;;;;;3.77;0.83;;;;;;;;;;5051703;28;20204;-66
2022/12/30 04:33:30;;;;;;;2.77;0.90;;;;;;;;;;5049897;28;20215;-67
2022/12/30 04:35:57;;;;;;;2.87;0.87;;;;;;;;;;5051552;28;20269;-67
2022/12/30 04:38:24;;;;;;;1.60;0.60;;;;;;;;;;5065349;28;20203;-67
2022/12/30 04:40:51;;;;;;;4.27;0.83;;;;;;;;;;5063863;28;20238;-67
2022/12/30 04:43:19;;;;;;;3.17;0.40;;;;;;;;;;5052545;28;20215;-67
2022/12/30 04:45:47;;;;;;;1.50;0.70;;;;;;;;;;5067864;28;20207;-67
2022/12/30 04:48:14;;;;;;;6.33;0.87;;;;;;;;;;5048545;28;20204;-67
2022/12/30 04:50:42;;;;;;;0.43;0.40;;;;;;;;;;5049433;28;20208;-67
2022/12/30 04:53:09;;;;;;;0.50;0.50;;;;;;;;;;5049208;28;20210;-67
2022/12/30 04:55:36;;;;;;;2.23;0.60;;;;;;;;;;5049809;28;20238;-67
2022/12/30 04:58:03;;;;;;;0.60;0.60;;;;;;;;;;5048827;28;20208;-67
2022/12/30 05:00:32;;;;;;;2.93;0.60;;;;;;;;;;5052863;28;20231;-67
2022/12/30 05:02:59;;;;;;;0.87;0.80;;;;;;;;;;5049355;28;20253;-66
2022/12/30 05:05:26;;;;;;;0.47;0.47;;;;;;;;;;5049580;28;20325;-66
2022/12/30 05:07:53;;;;;;;6.13;0.70;;;;;;;;;;5051438;28;20654;-66
2022/12/30 05:10:20;;;;;;;1.60;0.70;;;;;;;;;;5051678;28;20224;-66
2022/12/30 05:12:47;;;;;;;0.90;0.83;;;;;;;;;;5060419;28;20214;-66
2022/12/30 05:15:14;;;;;;;1.90;0.73;;;;;;;;;;5065873;28;20289;-66
2022/12/30 05:17:43;;;;;;;0.80;0.80;;;;;;;;;;5052207;28;20222;-66
2022/12/30 05:20:10;;;;;;;5.87;0.67;;;;;;;;;;5050435;28;20212;-65
2022/12/30 05:22:37;;;;;;;1.47;0.70;;;;;;;;;;5048665;28;20222;-65
2022/12/30 05:27:50;;;;;;;0.93;0.80;;;;;;;;;;5048962;28;20812;-65
2022/12/30 05:30:17;;;;;;;5.10;0.63;;;;;;;;;;5048071;28;20220;-65
2022/12/30 05:32:45;;;;;;;2.37;0.60;;;;;;;;;;5057291;28;20704;-65
2022/12/30 05:35:12;;;;;;;1.90;0.80;;;;;;;;;;5052487;28;20211;-65
2022/12/30 05:37:39;;;;;;;1.27;0.70;;;;;;;;;;5059916;28;20208;-66
2022/12/30 05:40:13;;;;;;;5.93;1.00;;;;;;;;;;5049761;28;20375;-66
2022/12/30 05:42:40;;;;;;;0.77;0.70;;;;;;;;;;5056021;28;20253;-66
2022/12/30 05:45:08;;;;;;;2.77;0.60;;;;;;;;;;5059407;28;20207;-66
2022/12/30 05:47:35;;;;;;;1.03;0.60;;;;;;;;;;5051120;28;20200;-66
2022/12/30 05:50:04;;;;;;;0.97;0.97;;;;;;;;;;5061761;28;20208;-66
2022/12/30 05:52:31;;;;;;;0.53;0.53;;;;;;;;;;5064713;28;20203;-66
2022/12/30 05:54:58;;;;;;;2.53;0.43;;;;;;;;;;5059269;28;20650;-66
2022/12/30 05:57:25;;;;;;;1.03;0.47;;;;;;;;;;5067722;28;20206;-66
2022/12/30 05:59:52;;;;;;;0.47;0.40;;;;;;;;;;5056292;28;20229;-66
2022/12/30 06:02:21;;;;;;;2.77;0.60;;;;;;;;;;5061053;28;20277;-66
2022/12/30 06:04:48;;;;;;;5.40;0.53;;;;;;;;;;5056973;28;20211;-67
2022/12/30 06:07:16;;;;;;;0.90;0.67;;;;;;;;;;5056098;28;20667;-66
2022/12/30 06:09:43;;;;;;;2.73;0.50;;;;;;;;;;5059167;28;20247;-67
2022/12/30 06:12:10;;;;;;;1.03;0.60;;;;;;;;;;5054121;28;20207;-66
2022/12/30 06:14:37;;;;;;;3.03;0.47;;;;;;;;;;5049313;28;20671;-67
2022/12/30 06:17:04;;;;;;;7.00;1.17;;;;;;;;;;5058045;28;20195;-66
2022/12/30 06:19:31;;;;;;;2.30;0.70;;;;;;;;;;5059182;28;20706;-67
2022/12/30 06:21:58;;;;;;;7.93;0.90;;;;;;;;;;5056686;28;20599;-67
2022/12/30 06:24:26;;;;;;;2.77;0.83;;;;;;;;;;5047588;28;20954;-67
2022/12/30 06:26:54;;;;;;;4.83;0.93;;;;;;;;;;5047933;28;20281;-67
2022/12/30 06:29:21;;;;;;;4.23;1.00;;;;;;;;;;5047120;28;20635;-67
2022/12/30 06:31:48;;;;;;;0.90;0.90;;;;;;;;;;5046946;28;20199;-64
2022/12/30 06:34:15;;;;;;;5.00;0.83;;;;;;;;;;5054767;28;20284;-65
2022/12/30 06:36:42;;;;;;;1.47;0.70;;;;;;;;;;5063883;28;20272;-66
2022/12/30 06:39:09;;;;;;;2.90;0.77;;;;;;;;;;5054376;28;20269;-67
2022/12/30 06:41:37;;;;;;;4.40;1.10;;;;;;;;;;5050348;28;20277;-67
2022/12/30 06:44:04;;;;;;;7.00;0.80;;;;;;;;;;5054201;28;20212;-67
2022/12/30 06:46:31;;;;;;;2.67;0.60;;;;;;;;;;5061268;28;20198;-67
2022/12/30 06:48:58;;;;;;;4.10;0.90;;;;;;;;;;5058214;28;20259;-67
2022/12/30 06:51:25;;;;;;;0.60;0.60;;;;;;;;;;5061322;28;20199;-67
2022/12/30 06:53:52;;;;;;;3.83;0.73;;;;;;;;;;5071506;28;20214;-67
2022/12/30 06:56:19;;;;;;;1.00;0.87;;;;;;;;;;5071447;28;20219;-66
2022/12/30 06:58:47;;;;;;;5.00;0.77;;;;;;;;;;5058557;28;20624;-67
2022/12/30 07:01:14;;;;;;;2.43;0.60;;;;;;;;;;5055581;28;20365;-67
2022/12/30 07:03:42;;;;;;;0.40;0.40;;;;;;;;;;5061896;28;20475;-67
2022/12/30 07:06:12;;;;;;;3.63;0.80;;;;;;;;;;5071167;28;20207;-67
2022/12/30 07:08:39;;;;;;;1.90;0.60;;;;;;;;;;5070027;28;20254;-67
2022/12/30 07:11:06;;;;;;;3.10;0.80;;;;;;;;;;5067949;28;20207;-66
2022/12/30 07:13:38;;;;;;;4.27;1.37;;;;;;;;;;5070793;28;20205;-66
2022/12/30 07:16:07;;;;;;;2.87;0.67;;;;;;;;;;5052641;28;20204;-67
2022/12/30 07:18:34;;;;;;;2.33;0.77;;;;;;;;;;5051074;28;20215;-66
2022/12/30 07:21:01;;;;;;;2.80;0.73;;;;;;;;;;5050702;28;20231;-66
2022/12/30 07:23:28;;;;;;;0.60;0.60;;;;;;;;;;5059305;28;20231;-67
2022/12/30 07:25:55;;;;;;;6.67;0.60;;;;;;;;;;5070168;28;20211;-67
2022/12/30 07:28:22;;;;;;;3.50;0.90;;;;;;;;;;5070327;28;20219;-66
2022/12/30 07:30:49;;;;;;;13.77;1.17;;;;;;;;;;5066482;28;20200;-67
2022/12/30 07:33:18;;;;;;;1.13;1.13;;;;;;;;;;5055932;28;20336;-67
2022/12/30 07:35:45;;;;;;;2.00;1.50;;;;;;;;;;5070455;28;20207;-66
2022/12/30 07:38:12;;;;;;;1.63;1.00;;;;;;;;;;5062045;28;20219;-66
2022/12/30 07:40:39;;;;;;;2.67;1.20;;;;;;;;;;5069330;28;20211;-66
2022/12/30 07:43:06;;;;;;;3.30;1.10;;;;;;;;;;5062319;28;20223;-66
2022/12/30 07:45:33;;;;;;;3.90;0.80;;;;;;;;;;5051169;28;20207;-67
2022/12/30 07:48:00;;;;;;;4.80;1.03;;;;;;;;;;5051458;28;20524;-66
2022/12/30 07:50:29;;;;;;;2.80;0.90;;;;;;;;;;5054761;28;20207;-67
2022/12/30 07:52:56;;;;;;;0.73;0.57;;;;;;;;;;5050430;28;20207;-66
2022/12/30 07:55:23;;;;;;;3.10;1.67;;;;;;;;;;5050041;28;20219;-66
2022/12/30 07:57:50;;;;;;;1.53;0.70;;;;;;;;;;5062438;28;20284;-66
2022/12/30 08:00:17;;;;;;;2.47;0.93;;;;;;;;;;5068281;28;20211;-66
2022/12/30 08:02:44;;;;;;;4.27;1.07;;;;;;;;;;5055943;28;20288;-66
2022/12/30 08:05:11;;;;;;;5.33;1.10;;;;;;;;;;5051424;28;20211;-66
2022/12/30 08:07:40;;;;;;;1.93;1.00;;;;;;;;;;5050661;28;20273;-65
2022/12/30 08:10:07;;;;;;;4.00;0.70;;;;;;;;;;5052781;28;20239;-66
2022/12/30 08:12:35;;;;;;;1.30;1.20;;;;;;;;;;5058582;28;20214;-66
2022/12/30 08:15:02;;;;;;;1.33;0.80;;;;;;;;;;5068944;28;20287;-66
2022/12/30 08:17:29;;;;;;;2.53;1.50;;;;;;;;;;5053599;28;20643;-66
2022/12/30 08:19:56;;;;;;;1.07;1.07;;;;;;;;;;5070275;28;20257;-65
2022/12/30 08:22:23;;;;;;;1.43;1.07;;;;;;;;;;5060323;28;20650;-65
2022/12/30 08:24:51;;;;;;;1.73;1.10;;;;;;;;;;5062980;28;20248;-66
2022/12/30 08:27:18;;;;;;;3.03;1.03;;;;;;;;;;5062036;28;20682;-66
2022/12/30 08:29:46;;;;;;;1.07;1.03;;;;;;;;;;5069563;28;20207;-66
2022/12/30 08:32:13;;;;;;;1.77;0.90;;;;;;;;;;5066604;28;20265;-66
2022/12/30 08:34:40;;;;;;;2.70;1.13;;;;;;;;;;5060929;28;20208;-66
2022/12/30 08:37:07;;;;;;;1.07;1.07;;;;;;;;;;5051796;28;20211;-66
2022/12/30 08:39:34;;;;;;;1.33;0.70;;;;;;;;;;5067930;28;20210;-66
2022/12/30 08:42:02;;;;;;;0.97;0.93;;;;;;;;;;5066902;28;20748;-65
2022/12/30 08:44:29;;;;;;;6.47;1.33;;;;;;;;;;5049280;28;20204;-66
2022/12/30 08:46:56;;;;;;;0.90;0.90;;;;;;;;;;5047355;28;20211;-66
2022/12/30 08:49:23;;;;;;;1.57;1.00;;;;;;;;;;5047775;28;20210;-65
2022/12/30 08:51:50;;;;;;;9.33;1.67;;;;;;;;;;5049536;28;20693;-65
2022/12/30 08:54:18;;;;;;;1.40;0.87;;;;;;;;;;5050330;28;20265;-66
2022/12/30 08:56:48;;;;;;;1.13;0.83;;;;;;;;;;5052236;28;20288;-65
2022/12/30 08:59:16;;;;;;;5.27;1.13;;;;;;;;;;5066648;28;20280;-65
2022/12/30 09:01:43;;;;;;;0.90;0.90;;;;;;;;;;5055986;28;20223;-68
2022/12/30 09:04:11;;;;;;;1.53;1.43;;;;;;;;;;5063665;28;20212;-63
2022/12/30 09:06:39;;;;;;;3.43;1.50;;;;;;;;;;5051204;28;20268;-65
2022/12/30 09:09:07;;;;;;;1.50;1.40;;;;;;;;;;5068963;28;20655;-65
2022/12/30 09:11:35;;;;;;;1.90;1.07;;;;;;;;;;5067724;28;20264;-69
2022/12/30 09:14:03;;;;;;;1.90;1.43;;;;;;;;;;5054508;28;20230;-71
2022/12/30 09:16:31;;;;;;;1.40;1.40;;;;;;;;;;5058737;28;20245;-65
2022/12/30 09:18:59;;;;;;;1.63;1.53;;;;;;;;;;5055113;28;20202;-66
2022/12/30 09:21:26;;;;;;;1.73;1.20;;;;;;;;;;5058814;28;20739;-65
2022/12/30 09:23:53;;;;;;;4.60;1.43;;;;;;;;;;5058336;28;20226;-65
2022/12/30 09:26:24;;;;;;;1.60;1.50;;;;;;;;;;5066011;28;20621;-65
2022/12/30 09:28:51;;;;;;;2.23;2.03;;;;;;;;;;5045073;28;20253;-65
2022/12/30 09:31:18;;;;;;;1.43;1.43;;;;;;;;;;5053539;28;20210;-65
2022/12/30 09:33:46;;;;;;;1.80;1.60;;;;;;;;;;5058141;28;20217;-65
2022/12/30 09:36:13;;;;;;;1.50;1.40;;;;;;;;;;5068193;28;20207;-66
2022/12/30 09:38:40;;;;;;;2.63;1.70;;;;;;;;;;5068054;28;20500;-65
2022/12/30 09:41:09;;;;;;;1.23;1.13;;;;;;;;;;5064985;28;20219;-65
2022/12/30 09:43:39;;;;;;;4.07;1.50;;;;;;;;;;5050448;28;20242;-65
2022/12/30 09:46:22;;;;;;;2.27;1.70;;;;;;;;;;5060033;28;20211;-65
2022/12/30 09:48:51;;;;;;;2.10;1.87;;;;;;;;;;5047847;28;20262;-65
2022/12/30 09:51:20;;;;;;;1.93;1.40;;;;;;;;;;5060830;28;20575;-65
2022/12/30 09:53:50;;;;;;;2.10;1.40;;;;;;;;;;5067910;28;20222;-65
2022/12/30 09:56:19;;;;;;;3.70;1.67;;;;;;;;;;5056854;28;20599;-66
2022/12/30 09:58:46;;;;;;;1.50;1.40;;;;;;;;;;5067394;28;20219;-65
2022/12/30 10:01:21;;;;;;;3.47;1.27;;;;;;;;;;5067821;28;20268;-65
2022/12/30 10:03:48;;;;;;;1.90;1.80;;;;;;;;;;5055813;28;20284;-66
2022/12/30 10:06:21;;;;;;;1.97;1.40;;;;;;;;;;5048862;28;20231;-66
2022/12/30 10:08:59;;;;;;;1.60;1.50;;;;;;;;;;5058170;28;20276;-66
2022/12/30 10:11:30;;;;;;;1.37;1.27;;;;;;;;;;5067614;28;20556;-65
2022/12/30 10:14:02;;;;;;;1.17;1.17;;;;;;;;;;5067293;28;20219;-66
2022/12/30 10:16:38;;;;;;;1.33;0.90;;;;;;;;;;5062826;28;20238;-66
2022/12/30 10:19:10;;;;;;;0.70;0.70;;;;;;;;;;5066811;28;20203;-65
2022/12/30 10:21:44;;;;;;;1.43;0.70;;;;;;;;;;5067447;28;20226;-66
2022/12/30 10:24:26;;;;;;;1.23;1.00;;;;;;;;;;5054770;28;20279;-66
2022/12/30 10:26:54;;;;;;;3.27;1.10;;;;;;;;;;5064987;28;20279;-65
2022/12/30 10:29:22;;;;;;;1.70;0.87;;;;;;;;;;5062480;28;20750;-65
2022/12/30 10:31:50;;;;;;;0.87;0.87;;;;;;;;;;5047231;28;20203;-65
2022/12/30 10:34:18;;;;;;;1.30;0.80;;;;;;;;;;5047456;28;20261;-65
2022/12/30 10:36:50;;;;;;;0.70;0.70;;;;;;;;;;5047329;28;20276;-65
2022/12/30 10:39:18;;;;;;;0.70;0.60;;;;;;;;;;5047152;28;20219;-65
2022/12/30 10:41:51;;;;;;;0.70;0.70;;;;;;;;;;5053881;28;20249;-65
2022/12/30 10:44:20;;;;;;;0.63;0.63;;;;;;;;;;5067045;28;20215;-65
2022/12/30 10:47:04;;;;;;;2.73;0.63;;;;;;;;;;5061153;28;20207;-66
2022/12/30 10:49:47;;;;;;;0.80;0.80;;;;;;;;;;5052221;28;20206;-65
2022/12/30 10:52:16;;;;;;;0.67;0.67;;;;;;;;;;5067357;28;20226;-64
2022/12/30 10:54:45;;;;;;;1.27;0.53;;;;;;;;;;5059616;28;20292;-67
2022/12/30 10:57:15;;;;;;;0.60;0.60;;;;;;;;;;5051739;28;20288;-65
2022/12/30 10:59:42;;;;;;;1.33;0.80;;;;;;;;;;5057284;28;20293;-66
2022/12/30 11:02:16;;;;;;;0.40;0.40;;;;;;;;;;5065516;28;20234;-66
2022/12/30 11:04:44;;;;;;;0.30;0.30;;;;;;;;;;5055867;28;20301;-66
2022/12/30 11:07:12;;;;;;;0.30;0.30;;;;;;;;;;5056691;28;20249;-65
2022/12/30 11:09:41;;;;;;;3.13;0.40;;;;;;;;;;5061752;28;20242;-66
2022/12/30 11:15:07;;;;;;;0.30;0.30;;;;;;;;;;5052818;28;20206;-65
2022/12/30 11:17:36;;;;;;;0.70;0.70;;;;;;;;;;5054177;28;20215;-63
2022/12/30 11:20:06;;;;;;;0.73;0.60;;;;;;;;;;5060376;28;20739;-69
2022/12/30 11:22:33;;;;;;;0.57;0.57;;;;;;;;;;5049787;28;20224;-64
2022/12/30 11:25:04;;;;;;;0.70;0.70;;;;;;;;;;5061798;28;20207;-64
2022/12/30 11:27:37;;;;;;;0.30;0.30;;;;;;;;;;5059723;28;20207;-64
2022/12/30 11:30:04;;;;;;;1.03;0.43;;;;;;;;;;5067597;28;20211;-64
2022/12/30 11:32:33;;;;;;;0.40;0.40;;;;;;;;;;5067159;28;20703;-63
2022/12/30 11:35:00;;;;;;;2.40;0.50;;;;;;;;;;5053889;28;20199;-64
2022/12/30 11:37:32;;;;;;;2.90;0.33;;;;;;;;;;5061869;28;20273;-70
2022/12/30 11:40:00;;;;;;;1.50;0.30;;;;;;;;;;5062610;28;20208;-67
2022/12/30 11:42:32;;;;;;;0.87;0.23;;;;;;;;;;5060555;28;20246;-65
2022/12/30 11:45:17;;;;;;;0.30;0.30;;;;;;;;;;5061325;28;20786;-65
2022/12/30 11:47:45;;;;;;;0.30;0.30;;;;;;;;;;5058326;28;20207;-65
2022/12/30 11:50:16;;;;;;;0.80;0.30;;;;;;;;;;5062741;28;20700;-65
2022/12/30 11:52:48;;;;;;;0.47;0.37;;;;;;;;;;5065375;28;20209;-65
2022/12/30 11:55:20;;;;;;;1.13;0.37;;;;;;;;;;5058470;28;20236;-65
2022/12/30 11:57:49;;;;;;;0.30;0.30;;;;;;;;;;5067016;28;20678;-65
2022/12/30 12:00:28;;;;;;;0.83;0.40;;;;;;;;;;5057850;28;20297;-65
2022/12/30 12:02:59;;;;;;;0.30;0.30;;;;;;;;;;5065619;28;20226;-65
2022/12/30 12:05:28;;;;;;;0.97;0.40;;;;;;;;;;5067196;28;20721;-65
2022/12/30 12:07:56;;;;;;;0.27;0.27;;;;;;;;;;5065804;28;20203;-64
2022/12/30 12:10:24;;;;;;;0.43;0.20;;;;;;;;;;5051117;28;20313;-65
2022/12/30 12:12:56;;;;;;;2.00;0.50;;;;;;;;;;5059344;28;20264;-65
2022/12/30 12:15:27;;;;;;;0.40;0.40;;;;;;;;;;5068596;28;20294;-64
2022/12/30 12:17:56;;;;;;;2.07;0.20;;;;;;;;;;5060722;28;20655;-64
2022/12/30 12:20:27;;;;;;;1.60;0.50;;;;;;;;;;5054966;28;20298;-64
2022/12/30 12:23:01;;;;;;;1.50;0.40;;;;;;;;;;5067260;28;20219;-64
2022/12/30 12:25:30;;;;;;;0.20;0.20;;;;;;;;;;5066654;28;20268;-64
2022/12/30 12:27:59;;;;;;;0.20;0.20;;;;;;;;;;5063178;28;20307;-64
2022/12/30 12:30:27;;;;;;;0.60;0.43;;;;;;;;;;5061337;28;20208;-64
2022/12/30 12:33:03;;;;;;;1.03;0.30;;;;;;;;;;5060258;28;20548;-65
2022/12/30 12:35:35;;;;;;;0.30;0.30;;;;;;;;;;5064858;28;20203;-64
2022/12/30 12:38:08;;;;;;;1.00;0.37;;;;;;;;;;5063679;28;20203;-65
2022/12/30 12:40:44;;;;;;;0.30;0.30;;;;;;;;;;5047917;28;20269;-65
2022/12/30 12:43:15;;;;;;;0.10;0.10;;;;;;;;;;5058154;28;20226;-65
2022/12/30 12:45:56;;;;;;;0.20;0.20;;;;;;;;;;5063648;28;20244;-65
2022/12/30 12:48:33;;;;;;;0.30;0.30;;;;;;;;;;5067442;28;20629;-65
2022/12/30 12:51:06;;;;;;;0.40;0.20;;;;;;;;;;5062491;28;20206;-65
2022/12/30 12:53:47;;;;;;;0.10;0.10;;;;;;;;;;5062736;28;20237;-66
2022/12/30 12:56:32;;;;;;;0.20;0.20;;;;;;;;;;5055948;28;20800;-65
2022/12/30 12:59:06;;;;;;;1.40;0.20;;;;;;;;;;5049110;28;20318;-65
2022/12/30 13:01:36;;;;;;;1.00;0.30;;;;;;;;;;5053279;28;20214;-71
2022/12/30 13:04:13;;;;;;;0.77;0.20;;;;;;;;;;5065557;28;20646;-66
2022/12/30 13:06:44;;;;;;;1.13;0.23;;;;;;;;;;5047909;28;20209;-64
2022/12/30 13:09:24;;;;;;;0.20;0.20;;;;;;;;;;5051226;28;20248;-65
2022/12/30 13:11:54;;;;;;;0.20;0.20;;;;;;;;;;5063046;28;20286;-65
2022/12/30 13:14:30;;;;;;;0.30;0.30;;;;;;;;;;5057009;28;20199;-65
2022/12/30 13:16:59;;;;;;;0.20;0.20;;;;;;;;;;5056814;28;20199;-66
2022/12/30 13:19:30;;;;;;;1.07;0.30;;;;;;;;;;5063643;28;20218;-66
2022/12/30 13:21:59;;;;;;;1.70;0.20;;;;;;;;;;5048389;28;20218;-66
2022/12/30 13:24:28;;;;;;;0.40;0.20;;;;;;;;;;5046307;28;20227;-65
2022/12/30 13:26:55;;;;;;;0.20;0.10;;;;;;;;;;5049367;28;22053;-66
2022/12/30 13:29:23;;;;;;;1.30;0.20;;;;;;;;;;5047043;28;20344;-66
2022/12/30 13:31:56;;;;;;;0.73;0.20;;;;;;;;;;5049768;28;20261;-66
2022/12/30 13:34:28;;;;;;;0.13;0.00;;;;;;;;;;5049065;28;20199;-66
2022/12/30 13:36:57;;;;;;;0.17;0.17;;;;;;;;;;5057275;28;20210;-66
2022/12/30 13:39:29;;;;;;;0.10;0.10;;;;;;;;;;5055553;28;20700;-66
2022/12/30 13:42:02;;;;;;;0.13;0.13;;;;;;;;;;5053125;28;20208;-67
2022/12/30 13:44:33;;;;;;;0.47;0.20;;;;;;;;;;5058254;28;20226;-67
2022/12/30 13:47:01;;;;;;;1.30;0.20;;;;;;;;;;5056185;28;20288;-66
2022/12/30 13:49:30;;;;;;;0.20;0.20;;;;;;;;;;5059018;28;20203;-66
2022/12/30 13:52:03;;;;;;;0.93;0.20;;;;;;;;;;5052818;28;20826;-66
2022/12/30 13:54:31;;;;;;;0.10;0.10;;;;;;;;;;5058185;28;20214;-67
2022/12/30 13:57:00;;;;;;;1.10;0.30;;;;;;;;;;5065632;28;20241;-67
2022/12/30 13:59:29;;;;;;;0.20;0.10;;;;;;;;;;5063144;28;20675;-67
2022/12/30 14:02:14;;;;;;;0.40;0.10;;;;;;;;;;5058500;28;20219;-67
2022/12/30 14:04:46;;;;;;;0.23;0.23;;;;;;;;;;5051665;28;20717;-66
2022/12/30 14:07:32;;;;;;;1.30;0.30;;;;;;;;;;5060076;28;20211;-66
2022/12/30 14:10:26;;;;;;;0.37;0.30;;;;;;;;;;5044760;28;20231;-64
2022/12/30 14:13:08;;;;;;;1.60;0.20;;;;;;;;;;5067566;28;20711;-67
2022/12/30 14:15:55;;;;;;;2.53;0.30;;;;;;;;;;5046564;28;20219;-67
2022/12/30 14:18:23;;;;;;;2.17;0.43;;;;;;;;;;5052185;28;20211;-66
2022/12/30 14:20:56;;;;;;;0.60;0.50;;;;;;;;;;5060262;28;20204;-66
2022/12/30 14:23:37;;;;;;;1.50;0.20;;;;;;;;;;5059852;28;20259;-66
2022/12/30 14:26:35;;;;;;;4.60;4.03;;;;;;;;;;5060234;28;20202;-66
2022/12/30 14:29:04;;;;;;;3.37;1.13;;;;;;;;;;5048830;28;20212;-66
2022/12/30 14:31:32;;;;;;;0.40;0.40;;;;;;;;;;5051566;28;20203;-68
2022/12/30 14:34:01;;;;;;;0.87;0.87;;;;;;;;;;5049195;28;20203;-66
2022/12/30 14:36:30;;;;;;;0.60;0.50;;;;;;;;;;5058685;28;20210;-66
2022/12/30 14:38:58;;;;;;;0.73;0.40;;;;;;;;;;5067682;28;20222;-69
2022/12/30 14:41:26;;;;;;;0.30;0.30;;;;;;;;;;5066218;28;20240;-66
2022/12/30 14:43:56;;;;;;;0.97;0.67;;;;;;;;;;5061640;28;20606;-67
2022/12/30 14:46:37;;;;;;;1.33;0.30;;;;;;;;;;5059261;28;20596;-65
2022/12/30 14:49:05;;;;;;;0.30;0.30;;;;;;;;;;5059995;28;20698;-67
2022/12/30 14:51:34;;;;;;;0.47;0.47;;;;;;;;;;5053377;28;20208;-68
2022/12/30 14:54:03;;;;;;;0.17;0.17;;;;;;;;;;5060586;28;20203;-68
2022/12/30 14:56:30;;;;;;;0.50;0.20;;;;;;;;;;5064130;28;20242;-67
2022/12/30 14:58:57;;;;;;;3.50;0.50;;;;;;;;;;5059240;28;20640;-68
2022/12/30 15:01:25;;;;;;;0.73;0.73;;;;;;;;;;5053895;28;20222;-67
2022/12/30 15:04:07;;;;;;;0.50;0.50;;;;;;;;;;5061221;28;20968;-67
2022/12/30 15:06:35;;;;;;;0.77;0.40;;;;;;;;;;5051404;28;20716;-67
2022/12/30 15:09:07;;;;;;;1.40;0.53;;;;;;;;;;5064907;28;20786;-67
2022/12/30 15:11:34;;;;;;;0.40;0.40;;;;;;;;;;5070531;28;20211;-67
2022/12/30 15:14:02;;;;;;;1.30;0.70;;;;;;;;;;5062504;28;20199;-66
2022/12/30 15:16:31;;;;;;;0.30;0.30;;;;;;;;;;5053318;28;20203;-66
2022/12/30 15:18:59;;;;;;;0.10;0.10;;;;;;;;;;5061537;28;20230;-67
2022/12/30 15:21:27;;;;;;;0.30;0.30;;;;;;;;;;5060848;28;20207;-67
2022/12/30 15:24:11;;;;;;;1.90;0.20;;;;;;;;;;5068459;28;20226;-67
2022/12/30 15:26:40;;;;;;;0.40;0.40;;;;;;;;;;5049520;28;20641;-67
2022/12/30 15:29:08;;;;;;;0.20;0.20;;;;;;;;;;5050174;28;20223;-67
2022/12/30 15:31:35;;;;;;;0.30;0.30;;;;;;;;;;5049241;28;20584;-67
2022/12/30 15:34:06;;;;;;;0.77;0.40;;;;;;;;;;5049800;28;20212;-67
2022/12/30 15:36:33;;;;;;;0.27;0.27;;;;;;;;;;5061843;28;20237;-67
2022/12/30 15:39:02;;;;;;;1.70;1.07;;;;;;;;;;5050919;28;20277;-66
2022/12/30 15:41:32;;;;;;;0.50;0.50;;;;;;;;;;5055794;28;20212;-67
2022/12/30 15:43:59;;;;;;;0.83;0.50;;;;;;;;;;5068066;28;20812;-67
2022/12/30 15:46:28;;;;;;;0.20;0.20;;;;;;;;;;5051697;28;20262;-67